Time;durP1;ratioP1;P1;durP2;ratioP2;P2;SDS_P1;SDS_P2;PMS_P1;PMS_P2;Temp;Humidity;BMP_temperature;BMP_pressure;BME280_temperature;BME280_humidity;BME280_pressure;Samples;Min_cycle;Max_cycle;Signal;HPM_P1;HPM_P2
2022/10/01 00:01:32;;;;;;;0.73;0.73;;;;;;;11.60;71.34;93904.31;5068497;28;20024;-35
2022/10/01 00:03:59;;;;;;;0.60;0.60;;;;;;;11.60;70.55;93890.47;5082199;28;20451;-35
2022/10/01 00:06:25;;;;;;;2.30;1.75;;;;;;;11.78;69.82;93895.75;5083603;28;20023;-35
2022/10/01 00:08:51;;;;;;;0.93;0.68;;;;;;;11.55;70.29;93903.16;5085311;28;20032;-35
2022/10/01 00:11:19;;;;;;;0.98;0.90;;;;;;;11.53;70.85;93894.69;5082394;28;20036;-35
2022/10/01 00:13:45;;;;;;;0.88;0.88;;;;;;;11.70;70.34;93897.00;5087086;28;20039;-35
2022/10/01 00:16:19;;;;;;;0.73;0.73;;;;;;;11.66;69.80;93896.59;5087180;28;20123;-35
2022/10/01 00:18:45;;;;;;;0.75;0.75;;;;;;;11.59;70.56;93883.44;5078955;28;20043;-35
2022/10/01 00:21:13;;;;;;;4.57;1.15;;;;;;;11.66;70.94;93891.81;5082073;28;20052;-35
2022/10/01 00:23:38;;;;;;;0.50;0.50;;;;;;;11.43;71.50;93888.19;5080781;28;20196;-35
2022/10/01 00:26:13;;;;;;;0.82;0.82;;;;;;;11.43;72.19;93888.19;5086460;28;20511;-35
2022/10/01 00:28:39;;;;;;;1.60;1.50;;;;;;;11.40;71.70;93878.19;5081103;28;20039;-35
2022/10/01 00:31:07;;;;;;;0.68;0.68;;;;;;;11.41;71.29;93876.91;5082196;28;20025;-35
2022/10/01 00:33:33;;;;;;;0.30;0.30;;;;;;;11.35;70.67;93868.75;5081970;28;20113;-35
2022/10/01 00:35:58;;;;;;;0.20;0.20;;;;;;;11.43;70.42;93866.78;5078317;28;20480;-36
2022/10/01 00:38:24;;;;;;;0.68;0.68;;;;;;;11.25;70.78;93875.34;5082819;28;20028;-35
2022/10/01 00:40:50;;;;;;;1.40;1.00;;;;;;;11.15;71.28;93879.88;5087877;28;20020;-35
2022/10/01 00:43:23;;;;;;;1.20;1.20;;;;;;;11.26;71.20;93885.13;5085298;28;20032;-35
2022/10/01 00:45:50;;;;;;;0.50;0.50;;;;;;;11.23;71.20;93881.41;5086977;28;20023;-35
2022/10/01 00:48:15;;;;;;;1.40;0.93;;;;;;;11.04;71.82;93878.16;5079672;28;20021;-35
2022/10/01 00:50:42;;;;;;;0.47;0.47;;;;;;;11.18;71.37;93878.78;5083525;28;20530;-35
2022/10/01 00:53:12;;;;;;;0.38;0.38;;;;;;;11.08;71.04;93869.50;5078710;28;20545;-35
2022/10/01 00:55:45;;;;;;;1.50;1.40;;;;;;;11.00;70.75;93872.19;5066783;28;20055;-35
2022/10/01 00:58:12;;;;;;;2.55;2.33;;;;;;;10.82;71.52;93861.38;5085333;28;20411;-35
2022/10/01 01:00:39;;;;;;;0.52;0.50;;;;;;;10.88;71.02;93876.53;5077686;28;20024;-35
2022/10/01 01:03:05;;;;;;;0.30;0.30;;;;;;;10.89;71.45;93883.56;5077699;28;20111;-35
2022/10/01 01:05:31;;;;;;;0.43;0.43;;;;;;;10.92;71.17;93867.91;5068304;28;20436;-35
2022/10/01 01:08:00;;;;;;;0.55;0.55;;;;;;;10.90;71.60;93878.75;5084691;28;20039;-35
2022/10/01 01:10:48;;;;;;;;;;;;;;;10.90;71.50;93867.69;5063791;28;20036;-35
2022/10/01 01:13:13;;;;;;;1.67;1.58;;;;;;;10.84;71.87;93861.59;5085909;28;19959;-35
2022/10/01 01:15:42;;;;;;;1.48;1.38;;;;;;;10.78;71.79;93863.75;5081380;28;20548;-35
2022/10/01 01:18:17;;;;;;;;;;;;;;;10.90;71.22;93862.19;5065911;28;20097;-35
2022/10/01 01:21:16;;;;;;;0.25;0.25;;;;;;;10.82;71.39;93862.13;5083103;28;19915;-34
2022/10/01 01:24:06;;;;;;;0.43;0.43;;;;;;;10.62;71.68;93858.09;5085046;28;20477;-35
2022/10/01 01:26:31;;;;;;;1.42;1.33;;;;;;;10.46;72.75;93867.50;5084977;28;20534;-35
2022/10/01 01:29:07;;;;;;;4.28;1.30;;;;;;;10.68;72.27;93860.72;5085064;28;20040;-36
2022/10/01 01:31:39;;;;;;;0.63;0.63;;;;;;;10.83;71.98;93858.06;5064050;28;20024;-36
2022/10/01 01:34:11;;;;;;;0.57;0.52;;;;;;;10.76;72.49;93855.25;5062271;28;20058;-36
2022/10/01 01:36:40;;;;;;;2.35;1.67;;;;;;;10.66;72.44;93852.97;5082149;28;20036;-35
2022/10/01 01:39:08;;;;;;;1.10;1.05;;;;;;;10.57;72.78;93850.69;5063081;28;20028;-36
2022/10/01 01:41:37;;;;;;;1.42;1.33;;;;;;;10.52;73.42;93846.06;5079875;28;20023;-36
2022/10/01 01:44:07;;;;;;;1.08;1.08;;;;;;;10.53;73.20;93847.53;5070827;28;20043;-36
2022/10/01 01:46:34;;;;;;;1.38;1.27;;;;;;;10.51;73.31;93824.50;5047399;28;20041;-35
2022/10/01 01:49:01;;;;;;;0.90;0.90;;;;;;;10.48;74.26;93839.38;5059940;28;20056;-35
2022/10/01 01:51:42;;;;;;;0.43;0.43;;;;;;;10.59;73.81;93833.56;5066357;28;20130;-36
2022/10/01 01:54:08;;;;;;;1.23;1.23;;;;;;;10.53;74.42;93842.00;5081581;28;20415;-36
2022/10/01 01:56:34;;;;;;;0.65;0.65;;;;;;;10.62;73.05;93841.53;5081909;28;20090;-35
2022/10/01 01:59:00;;;;;;;1.00;1.00;;;;;;;10.70;72.36;93838.81;5082093;28;20082;-36
2022/10/01 02:01:38;;;;;;;0.60;0.60;;;;;;;10.63;72.61;93840.25;5061288;28;20024;-36
2022/10/01 02:04:12;;;;;;;0.50;0.50;;;;;;;10.48;73.54;93839.38;5081684;28;20482;-36
2022/10/01 02:06:39;;;;;;;0.65;0.50;;;;;;;10.52;73.25;93846.06;5061197;28;20409;-36
2022/10/01 02:09:24;;;;;;;0.70;0.70;;;;;;;10.53;72.57;93853.03;5083786;28;20101;-36
2022/10/01 02:12:18;;;;;;;4.45;1.38;;;;;;;10.53;72.46;93853.03;5050194;28;20029;-36
2022/10/01 02:15:27;;;;;;;3.72;1.38;;;;;;;10.49;72.53;93866.44;5067485;28;20447;-36
2022/10/01 02:18:26;;;;;;;2.08;1.88;;;;;;;10.50;72.85;93865.16;5006176;28;20025;-37
2022/10/01 02:20:59;;;;;;;0.63;0.63;;;;;;;10.46;72.79;93866.78;5010853;28;20493;-36
2022/10/01 02:23:28;;;;;;;1.45;1.05;;;;;;;10.44;72.46;93870.06;5068499;28;20115;-36
2022/10/01 02:26:06;;;;;;;2.53;2.38;;;;;;;10.49;71.92;93868.47;5065784;28;20047;-36
2022/10/01 02:28:32;;;;;;;2.42;0.98;;;;;;;10.47;72.19;93877.28;5060550;28;20033;-36
2022/10/01 02:30:58;;;;;;;0.88;0.88;;;;;;;10.53;72.00;93875.13;5058455;28;20052;-36
2022/10/01 02:33:29;;;;;;;0.55;0.55;;;;;;;10.48;71.52;93884.28;5065659;28;20055;-36
2022/10/01 02:35:55;;;;;;;1.13;1.02;;;;;;;10.62;71.63;93888.47;5067941;28;20028;-36
2022/10/01 02:38:22;;;;;;;1.88;1.65;;;;;;;10.44;71.87;93894.91;5062477;28;20093;-36
2022/10/01 02:40:48;;;;;;;1.70;1.52;;;;;;;10.41;72.54;93893.25;5064093;28;20027;-36
2022/10/01 02:43:37;;;;;;;1.05;1.05;;;;;;;10.40;73.37;93896.53;5070960;28;20043;-36
2022/10/01 02:46:44;;;;;;;1.40;1.37;;;;;;;10.28;73.62;93898.81;5081005;28;20110;-36
2022/10/01 02:49:12;;;;;;;1.48;1.38;;;;;;;10.34;73.77;93899.41;5066780;28;20048;-36
2022/10/01 02:51:52;;;;;;;0.60;0.60;;;;;;;10.39;73.80;93909.59;5077889;28;20036;-36
2022/10/01 02:54:30;;;;;;;2.95;2.15;;;;;;;10.48;73.21;93906.38;5061446;28;20417;-36
2022/10/01 02:59:53;;;;;;;2.30;2.10;;;;;;;10.38;73.55;93905.34;5051037;28;20527;-36
2022/10/01 03:02:19;;;;;;;3.50;1.55;;;;;;;10.46;73.98;93908.19;5084278;28;20073;-35
2022/10/01 03:04:46;;;;;;;1.92;1.75;;;;;;;10.33;73.37;93892.41;5077480;28;20051;-36
2022/10/01 03:07:12;;;;;;;2.72;2.08;;;;;;;10.10;73.20;93883.13;5088839;28;20585;-36
2022/10/01 03:09:39;;;;;;;1.63;1.52;;;;;;;10.10;72.54;93905.19;5077433;28;20040;-36
2022/10/01 03:12:05;;;;;;;0.70;0.70;;;;;;;10.20;72.21;93903.50;5085456;28;20030;-36
2022/10/01 03:14:31;;;;;;;1.77;1.67;;;;;;;10.18;72.52;93911.56;5083440;28;20029;-36
2022/10/01 03:16:56;;;;;;;1.70;1.60;;;;;;;10.16;73.23;93907.84;5084402;28;20416;-36
2022/10/01 03:19:22;;;;;;;4.43;1.35;;;;;;;10.24;72.97;93903.19;5082082;28;20020;-36
2022/10/01 03:21:47;;;;;;;0.60;0.60;;;;;;;10.13;73.85;93917.97;5085474;28;20047;-36
2022/10/01 03:24:13;;;;;;;0.40;0.40;;;;;;;10.25;74.28;93921.19;5086521;28;20412;-36
2022/10/01 03:26:38;;;;;;;1.45;1.40;;;;;;;10.39;74.22;93923.41;5090105;28;20024;-36
2022/10/01 03:29:05;;;;;;;0.73;0.73;;;;;;;10.29;74.25;93916.09;5086154;28;20074;-36
2022/10/01 03:31:30;;;;;;;0.50;0.50;;;;;;;10.33;73.81;93928.28;5087411;28;20058;-36
2022/10/01 03:33:59;;;;;;;2.65;1.65;;;;;;;10.33;73.95;93919.28;5076677;28;20134;-35
2022/10/01 03:36:28;;;;;;;1.88;1.75;;;;;;;10.43;73.36;93920.31;5087325;28;20031;-36
2022/10/01 03:38:53;;;;;;;0.80;0.80;;;;;;;10.49;73.21;93921.66;5084463;28;20089;-36
2022/10/01 03:41:19;;;;;;;0.70;0.70;;;;;;;10.32;74.70;93910.25;5089422;28;20489;-36
2022/10/01 03:43:44;;;;;;;2.35;1.60;;;;;;;10.44;74.67;93905.97;5078371;28;20056;-36
2022/10/01 03:46:10;;;;;;;0.77;0.77;;;;;;;10.30;75.90;93915.56;5082114;28;20020;-36
2022/10/01 03:48:36;;;;;;;1.00;1.00;;;;;;;10.35;75.98;93900.16;5081820;28;20503;-36
2022/10/01 03:51:02;;;;;;;1.98;1.48;;;;;;;10.43;76.27;93895.47;5081650;28;20119;-36
2022/10/01 03:53:27;;;;;;;0.73;0.73;;;;;;;10.61;75.46;93911.09;5087410;28;20424;-36
2022/10/01 03:55:53;;;;;;;1.17;0.80;;;;;;;10.52;75.59;93917.09;5084105;28;20031;-36
2022/10/01 03:58:19;;;;;;;1.88;1.20;;;;;;;10.52;74.42;93934.41;5072672;28;20031;-36
2022/10/01 04:00:45;;;;;;;1.95;1.55;;;;;;;10.51;74.62;93926.63;5088105;28;20028;-36
2022/10/01 04:03:12;;;;;;;3.13;2.10;;;;;;;10.61;74.09;93917.34;5085978;28;20046;-36
2022/10/01 04:05:37;;;;;;;2.55;2.38;;;;;;;10.51;74.75;93916.34;5082640;28;20104;-36
2022/10/01 04:08:03;;;;;;;3.35;2.97;;;;;;;10.50;74.95;93917.59;5084110;28;20488;-36
2022/10/01 04:10:28;;;;;;;2.30;2.20;;;;;;;10.45;75.69;93923.25;5089384;28;20020;-36
2022/10/01 04:12:54;;;;;;;2.85;2.53;;;;;;;10.29;76.52;93913.34;5088007;28;20077;-36
2022/10/01 04:15:21;;;;;;;1.33;1.27;;;;;;;10.08;77.78;93910.50;5086779;28;20082;-36
2022/10/01 04:17:47;;;;;;;1.27;1.05;;;;;;;10.20;77.89;93911.75;5082770;28;20035;-36
2022/10/01 04:20:13;;;;;;;3.25;2.42;;;;;;;10.04;78.70;93915.63;5085706;28;20060;-36
2022/10/01 04:22:39;;;;;;;1.23;1.20;;;;;;;10.06;77.49;93909.56;5080103;28;20047;-34
2022/10/01 04:25:09;;;;;;;4.68;2.55;;;;;;;10.09;77.09;93897.47;5081412;28;20051;-34
2022/10/01 04:27:36;;;;;;;1.25;1.20;;;;;;;10.20;77.54;93903.50;5087372;28;20497;-35
2022/10/01 04:30:03;;;;;;;1.10;0.98;;;;;;;10.04;77.24;93904.56;5078475;28;20020;-35
2022/10/01 04:32:28;;;;;;;1.15;1.15;;;;;;;10.20;76.13;93883.44;5087953;28;20396;-35
2022/10/01 04:34:53;;;;;;;0.82;0.80;;;;;;;10.14;76.43;93853.22;5083282;28;20032;-36
2022/10/01 04:37:20;;;;;;;1.45;1.35;;;;;;;10.27;76.20;93861.44;5079932;28;20024;-36
2022/10/01 04:39:46;;;;;;;0.82;0.63;;;;;;;10.11;77.09;93862.56;5086384;28;20056;-36
2022/10/01 04:42:12;;;;;;;0.65;0.60;;;;;;;10.17;77.85;93870.72;5086295;28;20095;-36
2022/10/01 04:44:38;;;;;;;1.52;1.40;;;;;;;10.10;77.40;93863.06;5087094;28;20103;-36
2022/10/01 04:47:04;;;;;;;0.98;0.98;;;;;;;10.20;78.14;93877.94;5080721;28;20024;-36
2022/10/01 04:49:31;;;;;;;3.22;2.30;;;;;;;10.10;78.20;93877.59;5062830;28;20533;-36
2022/10/01 04:51:57;;;;;;;0.82;0.82;;;;;;;10.01;78.46;93869.78;5081131;28;20068;-36
2022/10/01 04:54:23;;;;;;;0.98;0.98;;;;;;;10.24;77.64;93881.84;5082254;28;20077;-36
2022/10/01 04:56:48;;;;;;;1.40;1.23;;;;;;;10.18;77.89;93878.44;5079216;28;20496;-36
2022/10/01 04:59:14;;;;;;;2.08;1.98;;;;;;;10.23;78.16;93885.88;5081281;28;20515;-36
2022/10/01 05:01:40;;;;;;;0.93;0.93;;;;;;;10.32;78.70;93884.66;5080539;28;20427;-36
2022/10/01 05:04:07;;;;;;;0.88;0.88;;;;;;;10.42;78.79;93886.44;5085456;28;20046;-36
2022/10/01 05:06:33;;;;;;;1.50;1.40;;;;;;;10.46;78.69;93875.78;5089726;28;20024;-36
2022/10/01 05:08:58;;;;;;;2.08;1.13;;;;;;;10.57;78.44;93875.53;5076010;28;20419;-36
2022/10/01 05:11:24;;;;;;;2.03;1.70;;;;;;;10.53;79.43;93888.94;5086891;28;20029;-36
2022/10/01 05:13:49;;;;;;;0.93;0.88;;;;;;;10.54;79.56;93881.41;5077120;28;20028;-36
2022/10/01 05:16:15;;;;;;;0.88;0.88;;;;;;;10.61;79.00;93873.16;5081558;28;20028;-36
2022/10/01 05:18:41;;;;;;;0.82;0.82;;;;;;;10.85;78.80;93896.22;5083360;28;20464;-36
2022/10/01 05:21:08;;;;;;;2.05;1.17;;;;;;;10.90;78.57;93893.31;5075809;28;20035;-36
2022/10/01 05:23:34;;;;;;;1.27;1.23;;;;;;;10.99;79.10;93894.84;5062272;28;20081;-36
2022/10/01 05:25:59;;;;;;;2.58;2.38;;;;;;;11.19;78.67;93903.13;5078291;28;20032;-35
2022/10/01 05:28:26;;;;;;;1.08;1.08;;;;;;;11.24;79.16;93901.50;5087127;28;20023;-36
2022/10/01 05:30:52;;;;;;;1.88;1.38;;;;;;;11.41;78.50;93897.00;5081154;28;20019;-36
2022/10/01 05:33:18;;;;;;;2.08;1.60;;;;;;;11.38;78.23;93878.00;5083043;28;20024;-36
2022/10/01 05:35:43;;;;;;;1.48;1.38;;;;;;;11.63;78.03;93897.69;5077718;28;20079;-36
2022/10/01 05:38:09;;;;;;;1.55;1.52;;;;;;;11.70;77.71;93894.25;5077275;28;20507;-36
2022/10/01 05:40:35;;;;;;;0.50;0.50;;;;;;;11.84;76.61;93901.16;5080130;28;20020;-36
2022/10/01 05:43:03;;;;;;;1.75;1.65;;;;;;;11.76;76.93;93903.16;5075107;28;20388;-36
2022/10/01 05:45:29;;;;;;;5.88;3.50;;;;;;;11.78;76.98;93904.06;5078363;28;20028;-36
2022/10/01 05:48:03;;;;;;;1.73;1.60;;;;;;;11.70;78.08;93911.59;5074463;28;20024;-36
2022/10/01 05:50:30;;;;;;;16.58;3.33;;;;;;;11.82;77.73;93929.38;5080000;28;20043;-36
2022/10/01 05:52:56;;;;;;;5.47;3.67;;;;;;;11.93;78.05;93937.34;5076139;28;20031;-36
2022/10/01 05:55:22;;;;;;;5.97;4.45;;;;;;;12.00;78.12;93944.19;5078549;28;20039;-36
2022/10/01 05:58:05;;;;;;;5.60;3.92;;;;;;;12.29;77.83;93962.25;5074746;28;20232;-37
2022/10/01 06:00:32;;;;;;;2.72;2.55;;;;;;;12.52;77.09;93967.84;5077596;28;20024;-36
2022/10/01 06:02:59;;;;;;;2.88;1.58;;;;;;;12.92;76.18;93961.31;5080206;28;20019;-36
2022/10/01 06:05:25;;;;;;;1.85;1.75;;;;;;;13.24;76.29;93969.13;5081947;28;20027;-36
2022/10/01 06:07:52;;;;;;;0.75;0.75;;;;;;;13.60;75.18;93966.16;5081743;28;20107;-36
2022/10/01 06:10:18;;;;;;;1.73;0.65;;;;;;;13.76;74.87;93972.44;5057849;28;20028;-36
2022/10/01 06:12:43;;;;;;;0.75;0.75;;;;;;;14.08;74.42;93975.34;5082455;28;20052;-37
2022/10/01 06:15:09;;;;;;;0.93;0.93;;;;;;;14.31;74.35;93978.84;5079426;28;20017;-36
2022/10/01 06:17:35;;;;;;;1.17;1.15;;;;;;;14.30;74.67;93971.81;5080576;28;20591;-36
2022/10/01 06:20:00;;;;;;;1.67;1.60;;;;;;;14.55;73.90;93967.09;5090896;28;20393;-37
2022/10/01 06:22:26;;;;;;;0.95;0.88;;;;;;;14.76;73.23;93953.63;5077137;28;20028;-36
2022/10/01 06:24:52;;;;;;;1.13;0.95;;;;;;;15.12;73.63;93909.47;5073843;28;20099;-37
2022/10/01 06:27:17;;;;;;;0.63;0.63;;;;;;;15.26;72.71;93889.72;5086152;28;20015;-36
2022/10/01 06:29:43;;;;;;;0.80;0.80;;;;;;;15.22;72.09;93917.94;5078181;28;20024;-36
2022/10/01 06:32:12;;;;;;;2.13;1.92;;;;;;;15.23;71.74;93932.56;5085494;28;20017;-36
2022/10/01 06:34:38;;;;;;;1.65;0.95;;;;;;;16.22;68.76;93941.53;5086052;28;20527;-36
2022/10/01 06:37:04;;;;;;;0.85;0.85;;;;;;;17.29;64.67;93931.94;5082579;28;20051;-36
2022/10/01 06:39:29;;;;;;;2.67;1.38;;;;;;;18.17;63.20;93928.78;5085001;28;20101;-36
2022/10/01 06:41:55;;;;;;;1.88;0.90;;;;;;;19.08;62.18;93943.78;5086396;28;20024;-36
2022/10/01 06:46:39;;;;;;;2.40;1.77;;;;;;;19.76;57.81;93956.94;5043316;27;2122853;-36
2022/10/01 06:49:04;;;;;;;0.40;0.40;;;;;;;19.66;57.98;93968.19;5097155;28;20050;-35
2022/10/01 06:54:17;;;;;;;0.50;0.50;;;;;;;19.04;59.02;93961.00;5100259;28;20573;-35
2022/10/01 06:56:42;;;;;;;0.82;0.82;;;;;;;19.10;59.90;93947.44;5097710;28;20103;-35
2022/10/01 06:59:08;;;;;;;0.30;0.30;;;;;;;19.48;60.41;93944.53;5088325;28;20127;-36
2022/10/01 07:01:35;;;;;;;0.95;0.90;;;;;;;20.50;57.69;93950.00;5090574;28;20025;-36
2022/10/01 07:04:01;;;;;;;0.30;0.30;;;;;;;21.28;54.01;93956.41;5092592;28;20032;-36
2022/10/01 07:06:26;;;;;;;0.77;0.77;;;;;;;21.80;53.19;93973.69;5088532;28;20099;-38
2022/10/01 07:08:52;;;;;;;0.43;0.43;;;;;;;22.34;49.91;93977.00;5093999;28;20018;-37
2022/10/01 07:11:19;;;;;;;0.30;0.30;;;;;;;22.53;49.15;93953.44;5089779;28;20051;-37
2022/10/01 07:13:44;;;;;;;0.32;0.32;;;;;;;23.34;48.58;93953.91;5091196;28;20024;-36
2022/10/01 07:16:10;;;;;;;0.10;0.10;;;;;;;24.02;45.46;93933.50;5091080;28;20020;-37
2022/10/01 07:18:35;;;;;;;0.55;0.55;;;;;;;24.44;45.26;93930.09;5093975;28;20036;-36
2022/10/01 07:21:01;;;;;;;0.47;0.47;;;;;;;25.29;43.19;93920.84;5087683;28;20531;-36
2022/10/01 07:23:27;;;;;;;0.63;0.63;;;;;;;25.89;41.52;93914.41;5098968;28;20027;-37
2022/10/01 07:25:52;;;;;;;0.20;0.20;;;;;;;26.22;40.61;93925.09;5089689;28;20063;-36
2022/10/01 07:28:19;;;;;;;0.50;0.50;;;;;;;26.25;40.30;93937.94;5092170;28;20031;-36
2022/10/01 07:30:56;;;;;;;0.90;0.57;;;;;;;26.35;40.12;93952.56;5091465;28;20035;-36
2022/10/01 07:33:22;;;;;;;0.20;0.20;;;;;;;26.48;40.31;93963.03;5094522;28;20051;-36
2022/10/01 07:35:48;;;;;;;0.40;0.40;;;;;;;27.29;38.15;93960.75;5087634;28;20464;-36
2022/10/01 07:38:13;;;;;;;0.30;0.30;;;;;;;28.41;36.00;93948.03;5089140;28;20151;-36
2022/10/01 07:40:39;;;;;;;0.25;0.20;;;;;;;29.28;34.40;93958.84;5085469;28;20028;-36
2022/10/01 07:43:05;;;;;;;0.70;0.43;;;;;;;29.69;34.08;93955.88;5089783;28;20020;-36
2022/10/01 07:45:30;;;;;;;0.38;0.38;;;;;;;29.90;33.09;93955.84;5094245;28;20046;-36
2022/10/01 07:47:58;;;;;;;1.00;0.65;;;;;;;30.47;32.95;93948.97;5091414;28;20435;-36
2022/10/01 07:50:25;;;;;;;0.38;0.38;;;;;;;31.14;31.33;93942.94;5073991;28;20027;-37
2022/10/01 07:52:55;;;;;;;0.32;0.20;;;;;;;31.89;31.08;93943.31;5091207;28;20070;-36
2022/10/01 07:55:21;;;;;;;1.05;0.95;;;;;;;32.42;28.76;93942.28;5088836;28;20154;-37
2022/10/01 07:57:54;;;;;;;0.10;0.10;;;;;;;32.86;27.97;93931.75;5075925;28;20021;-37
2022/10/01 08:00:21;;;;;;;0.17;0.17;;;;;;;33.45;26.74;93929.91;5071466;28;20027;-36
2022/10/01 08:02:52;;;;;;;0.70;0.70;;;;;;;33.81;26.06;93926.91;5079754;28;20077;-36
2022/10/01 08:05:19;;;;;;;0.15;0.15;;;;;;;34.49;23.63;93933.56;5060554;28;20036;-37
2022/10/01 08:07:45;;;;;;;0.43;0.32;;;;;;;34.04;22.86;93923.69;5078767;28;20054;-37
2022/10/01 08:10:11;;;;;;;0.68;0.10;;;;;;;34.00;24.61;93937.91;5081824;28;20115;-36
2022/10/01 08:12:37;;;;;;;0.20;0.20;;;;;;;34.55;23.43;93930.78;5077161;28;20521;-36
2022/10/01 08:15:02;;;;;;;0.20;0.20;;;;;;;34.29;23.32;93919.72;5074761;28;20016;-36
2022/10/01 08:17:28;;;;;;;2.30;1.13;;;;;;;34.08;23.51;93926.59;5072646;28;20971;-36
2022/10/01 08:19:54;;;;;;;5.07;0.77;;;;;;;33.26;23.70;93931.75;5080615;28;20027;-36
2022/10/01 08:22:19;;;;;;;0.10;0.10;;;;;;;31.84;26.35;93929.59;5083802;28;20081;-36
2022/10/01 08:24:45;;;;;;;0.20;0.20;;;;;;;30.54;29.12;93927.78;5078480;28;20025;-36
2022/10/01 08:27:10;;;;;;;0.22;0.22;;;;;;;29.49;30.39;93919.00;5074359;28;20024;-36
2022/10/01 08:29:36;;;;;;;0.28;0.28;;;;;;;29.12;31.26;93911.41;5076810;28;20058;-36
2022/10/01 08:32:01;;;;;;;0.88;0.70;;;;;;;28.38;32.12;93903.91;5080690;28;20028;-36
2022/10/01 08:34:26;;;;;;;0.28;0.20;;;;;;;27.87;33.23;93906.28;5074183;28;20448;-36
2022/10/01 08:36:52;;;;;;;0.20;0.20;;;;;;;27.60;33.98;93906.69;5080452;28;20024;-36
2022/10/01 08:39:17;;;;;;;0.30;0.30;;;;;;;27.16;34.93;93902.81;5073500;28;20020;-36
2022/10/01 08:42:20;;;;;;;0.20;0.20;;;;;;;26.56;35.62;93906.72;5081199;28;20032;-36
2022/10/01 08:44:46;;;;;;;0.10;0.10;;;;;;;26.04;36.26;93898.78;5068119;28;20516;-36
2022/10/01 08:47:30;;;;;;;0.15;0.15;;;;;;;25.70;37.95;93897.28;5075852;28;20071;-36
2022/10/01 08:50:03;;;;;;;0.10;0.10;;;;;;;25.35;39.02;93904.16;5079309;28;20389;-36
2022/10/01 08:52:35;;;;;;;0.30;0.30;;;;;;;25.03;39.70;93910.38;5056661;28;20093;-36
2022/10/01 08:55:18;;;;;;;0.60;0.60;;;;;;;24.93;40.02;93919.09;5073487;28;20024;-36
2022/10/01 08:57:58;;;;;;;0.20;0.20;;;;;;;24.71;40.35;93904.59;5058887;28;20106;-36
2022/10/01 09:00:23;;;;;;;0.40;0.40;;;;;;;24.65;40.90;93901.47;5074063;28;20103;-36
2022/10/01 09:02:51;;;;;;;0.50;0.50;;;;;;;24.65;41.74;93901.47;5075345;28;20067;-36
2022/10/01 09:05:37;;;;;;;0.10;0.10;;;;;;;24.68;40.90;93891.03;5059655;28;20500;-36
2022/10/01 09:08:14;;;;;;;0.20;0.20;;;;;;;24.73;42.30;93887.03;5076666;28;20056;-35
2022/10/01 09:11:15;;;;;;;0.10;0.10;;;;;;;24.74;40.23;93869.47;5081950;28;20028;-35
2022/10/01 09:13:46;;;;;;;0.20;0.20;;;;;;;24.81;42.57;93895.91;5060604;28;20044;-36
2022/10/01 09:16:45;;;;;;;0.17;0.15;;;;;;;24.82;43.22;93897.38;5080595;28;20016;-36
2022/10/01 09:19:44;;;;;;;0.17;0.17;;;;;;;24.78;47.49;93925.41;5061189;28;20061;-36
2022/10/01 09:22:40;;;;;;;0.70;0.70;;;;;;;24.21;45.51;93909.84;5081871;28;20028;-36
2022/10/01 09:25:13;;;;;;;0.20;0.20;;;;;;;24.04;42.02;93925.91;5078287;28;20040;-36
2022/10/01 09:27:38;;;;;;;0.80;0.28;;;;;;;23.69;43.93;93910.66;5057826;28;20504;-36
2022/10/01 09:30:10;;;;;;;0.28;0.28;;;;;;;23.63;43.78;93925.13;5074288;28;20028;-36
2022/10/01 09:32:42;;;;;;;0.10;0.10;;;;;;;23.46;44.26;93920.00;5055053;28;20059;-37
2022/10/01 09:35:33;;;;;;;0.20;0.20;;;;;;;23.40;44.50;93927.38;5050304;28;20396;-36
2022/10/01 09:38:03;;;;;;;0.52;0.52;;;;;;;23.14;45.77;93938.66;5055157;28;20025;-36
2022/10/01 09:40:34;;;;;;;1.17;1.05;;;;;;;23.21;44.57;93934.09;5075634;28;20032;-36
2022/10/01 09:43:02;;;;;;;8.60;1.48;;;;;;;23.17;45.12;93939.50;5077538;28;20436;-35
2022/10/01 09:45:27;;;;;;;0.80;0.73;;;;;;;23.05;46.70;93959.28;5078387;28;20068;-36
2022/10/01 09:47:57;;;;;;;0.47;0.47;;;;;;;23.12;45.42;93960.34;5076920;28;20478;-36
2022/10/01 09:50:38;;;;;;;0.28;0.28;;;;;;;22.63;45.32;93980.13;5065496;28;20500;-36
2022/10/01 09:53:04;;;;;;;9.45;1.05;;;;;;;22.33;47.47;93998.03;5059591;28;20016;-36
2022/10/01 09:55:36;;;;;;;1.25;1.15;;;;;;;22.12;50.60;94009.41;5075574;28;20020;-35
2022/10/01 09:58:17;;;;;;;0.55;0.52;;;;;;;21.90;51.53;94022.13;5082899;28;20024;-35
2022/10/01 10:00:44;;;;;;;0.38;0.38;;;;;;;21.78;52.41;94030.53;5058344;28;20067;-36
2022/10/01 10:03:20;;;;;;;0.10;0.10;;;;;;;21.54;52.93;94043.06;5070998;28;20016;-36
2022/10/01 10:05:47;;;;;;;0.10;0.10;;;;;;;21.21;54.10;94052.84;5083946;28;20028;-35
2022/10/01 10:08:18;;;;;;;0.17;0.17;;;;;;;20.99;55.38;94044.44;5061010;28;20138;-35
2022/10/01 10:10:53;;;;;;;0.40;0.40;;;;;;;20.88;56.14;94045.13;5080695;28;20111;-35
2022/10/01 10:13:30;;;;;;;0.30;0.30;;;;;;;20.70;56.99;94046.00;5054249;28;20082;-35
2022/10/01 10:15:57;;;;;;;0.52;0.52;;;;;;;20.60;59.99;94059.34;5054521;28;20027;-35
2022/10/01 10:18:33;;;;;;;0.68;0.68;;;;;;;20.56;60.37;94057.00;5058431;28;20047;-35
2022/10/01 10:21:02;;;;;;;1.17;1.08;;;;;;;20.60;60.98;94040.44;5078527;28;20025;-36
2022/10/01 10:23:30;;;;;;;;;;;;;;;20.59;61.47;94027.78;5057019;28;20023;-35
2022/10/01 10:26:00;;;;;;;0.77;0.77;;;;;;;20.47;61.25;94021.34;5056274;28;19912;-35
2022/10/01 10:28:26;;;;;;;0.43;0.43;;;;;;;20.51;61.78;94012.47;5079762;28;20039;-36
2022/10/01 10:30:54;;;;;;;0.10;0.10;;;;;;;20.42;61.86;94023.13;5071930;28;20025;-36
2022/10/01 10:33:22;;;;;;;0.63;0.57;;;;;;;20.56;62.46;94017.00;5079942;28;20468;-35
2022/10/01 10:36:00;;;;;;;1.45;1.25;;;;;;;20.69;62.13;93999.63;5052623;28;20095;-36
2022/10/01 10:38:29;;;;;;;0.75;0.75;;;;;;;20.80;61.67;93970.88;5053216;28;20102;-35
2022/10/01 10:40:56;;;;;;;3.13;0.80;;;;;;;20.86;60.68;93974.81;5053261;28;20034;-36
2022/10/01 10:43:28;;;;;;;0.20;0.20;;;;;;;21.01;61.11;93980.00;5073917;28;20020;-35
2022/10/01 10:45:55;;;;;;;4.30;0.60;;;;;;;21.07;61.75;93980.41;5057088;28;20063;-35
2022/10/01 10:48:24;;;;;;;0.40;0.40;;;;;;;21.34;61.30;93984.88;5039255;28;20032;-35
2022/10/01 10:50:58;;;;;;;0.20;0.20;;;;;;;21.66;59.68;93986.88;5056118;28;20103;-36
2022/10/01 10:53:26;;;;;;;0.45;0.45;;;;;;;21.88;59.64;93989.00;5072162;28;20032;-36
2022/10/01 10:56:03;;;;;;;0.13;0.13;;;;;;;21.98;57.46;93963.59;5072977;28;20143;-35
2022/10/01 10:58:32;;;;;;;0.28;0.28;;;;;;;22.03;57.46;93978.59;5072275;28;20032;-35
2022/10/01 11:01:05;;;;;;;0.15;0.15;;;;;;;22.15;57.92;93971.66;5070698;28;20099;-36
2022/10/01 11:03:31;;;;;;;0.20;0.20;;;;;;;22.18;57.00;93981.66;5073675;28;20036;-35
2022/10/01 11:06:02;;;;;;;0.13;0.13;;;;;;;22.26;57.82;93972.97;5074920;28;20530;-36
2022/10/01 11:08:28;;;;;;;22.90;1.00;;;;;;;22.32;56.50;93967.69;5075362;28;20040;-35
2022/10/01 11:11:31;;;;;;;0.60;0.60;;;;;;;22.06;57.65;93974.56;5073830;28;20025;-35
2022/10/01 11:14:14;;;;;;;0.30;0.30;;;;;;;21.99;56.46;93987.53;5052738;28;20043;-36
2022/10/01 11:17:08;;;;;;;0.80;0.70;;;;;;;21.99;58.47;93981.91;5073742;28;20032;-35
2022/10/01 11:20:00;;;;;;;1.48;1.25;;;;;;;22.04;58.49;93980.81;5070251;28;20029;-35
2022/10/01 11:22:52;;;;;;;0.57;0.57;;;;;;;22.01;58.48;93967.97;5053942;28;20037;-35
2022/10/01 11:25:32;;;;;;;0.40;0.40;;;;;;;21.95;57.54;93959.19;5072278;28;20027;-35
2022/10/01 11:28:07;;;;;;;0.45;0.38;;;;;;;21.74;58.25;93957.19;5055421;28;20101;-35
2022/10/01 11:30:41;;;;;;;0.30;0.20;;;;;;;21.69;58.67;93947.06;5073243;28;20020;-35
2022/10/01 11:33:21;;;;;;;0.65;0.63;;;;;;;21.66;58.37;93934.22;5073202;28;20097;-36
2022/10/01 11:36:10;;;;;;;0.20;0.20;;;;;;;21.74;60.27;93917.84;5060619;28;20099;-35
2022/10/01 11:39:05;;;;;;;0.15;0.15;;;;;;;21.74;61.43;93905.88;5082037;28;20023;-35
2022/10/01 11:41:41;;;;;;;5.18;0.65;;;;;;;21.75;62.02;93879.22;5080451;28;20123;-36
2022/10/01 11:44:20;;;;;;;0.13;0.13;;;;;;;21.76;64.99;93858.97;5082310;28;20539;-35
2022/10/01 11:46:59;;;;;;;0.45;0.45;;;;;;;21.55;63.48;93833.06;5077358;28;20036;-35
2022/10/01 11:49:54;;;;;;;0.10;0.10;;;;;;;21.67;64.82;93830.97;5078208;28;20039;-35
2022/10/01 11:52:32;;;;;;;0.20;0.20;;;;;;;21.46;65.25;93831.84;5057626;28;20035;-35
2022/10/01 12:01:24;;;;;;;0.20;0.20;;;;;;;20.82;64.31;93799.81;5086266;28;20795;-35
2022/10/01 12:04:00;;;;;;;0.10;0.10;;;;;;;20.71;64.91;93840.53;5076325;28;20020;-36